Time;durP1;ratioP1;P1;durP2;ratioP2;P2;SDS_P1;SDS_P2;PMS_P1;PMS_P2;Temp;Humidity;BMP_temperature;BMP_pressure;BME280_temperature;BME280_humidity;BME280_pressure;Samples;Min_cycle;Max_cycle;Signal;HPM_P1;HPM_P2
2023/08/09 00:01:46;;;;;;;0.80;0.80;;;20.10;61.50;19.40;96436.00;;;;5056523;28;20624;-83
2023/08/09 00:04:13;;;;;;;0.90;0.90;;;20.10;61.40;19.40;96434.00;;;;5054735;28;20299;-83
2023/08/09 00:06:41;;;;;;;1.20;1.03;;;20.10;61.40;19.40;96429.00;;;;5056429;28;20227;-83
2023/08/09 00:09:09;;;;;;;1.90;1.23;;;20.10;61.40;19.40;96429.00;;;;5056057;28;20291;-83
2023/08/09 00:11:36;;;;;;;1.23;1.13;;;20.10;61.40;19.40;96432.00;;;;5055816;28;20224;-82
2023/08/09 00:14:04;;;;;;;0.97;0.90;;;20.10;61.50;19.40;96438.00;;;;5056039;28;20276;-83
2023/08/09 00:16:34;;;;;;;1.90;1.00;;;20.20;61.40;19.40;96433.00;;;;5055693;28;20286;-82
2023/08/09 00:19:01;;;;;;;0.80;0.80;;;20.20;60.80;19.50;96427.00;;;;5054626;28;20254;-83
2023/08/09 00:21:29;;;;;;;1.43;0.77;;;20.20;60.60;19.50;96430.00;;;;5054576;28;20829;-83
2023/08/09 00:23:56;;;;;;;0.80;0.80;;;20.20;60.60;19.50;96425.00;;;;5055180;28;20217;-82
2023/08/09 00:26:24;;;;;;;1.00;0.90;;;20.20;60.30;19.50;96423.00;;;;5054551;28;20764;-82
2023/08/09 00:28:53;;;;;;;1.57;0.80;;;20.20;60.20;19.50;96419.00;;;;5054878;28;20202;-83
2023/08/09 00:31:21;;;;;;;0.83;0.73;;;20.20;60.00;19.50;96424.00;;;;5054623;28;20229;-83
2023/08/09 00:33:50;;;;;;;2.77;1.20;;;20.20;59.80;19.50;96421.00;;;;5054927;28;20287;-82
2023/08/09 00:36:17;;;;;;;2.13;0.90;;;20.30;59.70;19.60;96413.00;;;;5055845;28;20288;-83
2023/08/09 00:38:45;;;;;;;1.27;1.00;;;20.20;59.60;19.60;96414.00;;;;5055061;28;20287;-82
2023/08/09 00:41:12;;;;;;;0.90;0.90;;;20.30;59.60;19.60;96409.00;;;;5046634;28;20294;-83
2023/08/09 00:43:39;;;;;;;1.60;0.80;;;20.30;59.40;19.60;96408.00;;;;5048350;28;20207;-82
2023/08/09 00:46:07;;;;;;;1.53;0.90;;;20.30;59.30;19.60;96411.00;;;;5049251;28;20204;-83
2023/08/09 00:48:36;;;;;;;0.70;0.70;;;20.30;59.40;19.60;96418.00;;;;5046428;28;20209;-82
2023/08/09 00:51:05;;;;;;;2.93;0.90;;;20.30;59.40;19.70;96421.00;;;;5036231;28;20206;-83
2023/08/09 00:53:33;;;;;;;0.70;0.60;;;20.30;59.50;19.70;96412.00;;;;5055413;28;20631;-83
2023/08/09 00:56:01;;;;;;;0.60;0.60;;;20.40;60.00;19.70;96419.00;;;;5042416;28;20258;-83
2023/08/09 00:58:28;;;;;;;1.03;0.70;;;20.40;60.00;19.70;96425.00;;;;5056298;28;20716;-83
2023/08/09 01:00:55;;;;;;;0.80;0.80;;;20.40;60.10;19.70;96430.00;;;;5055663;28;20201;-83
2023/08/09 01:03:22;;;;;;;0.60;0.60;;;20.40;59.50;19.70;96420.00;;;;5055790;28;20205;-82
2023/08/09 01:06:01;;;;;;;0.80;0.80;;;20.40;59.50;19.70;96430.00;;;;5050577;28;20220;-83
2023/08/09 01:08:41;;;;;;;0.80;0.80;;;20.40;59.40;19.80;96425.00;;;;5048297;28;20201;-82
2023/08/09 01:11:16;;;;;;;0.73;0.73;;;20.40;59.40;19.80;96419.00;;;;5045681;28;20267;-83
2023/08/09 01:13:46;;;;;;;0.90;0.90;;;20.50;59.30;19.80;96424.00;;;;5046655;28;20200;-82
2023/08/09 01:16:14;;;;;;;1.10;1.03;;;20.50;59.10;19.80;96426.00;;;;5047437;28;20281;-83
2023/08/09 01:18:43;;;;;;;0.70;0.70;;;20.50;59.10;19.80;96426.00;;;;5055589;28;20203;-82
2023/08/09 01:21:11;;;;;;;0.73;0.73;;;20.50;59.30;19.80;96424.00;;;;5055757;28;20276;-82
2023/08/09 01:23:42;;;;;;;1.30;0.83;;;20.50;59.40;19.80;96427.00;;;;5054781;28;20674;-83
2023/08/09 01:26:12;;;;;;;0.80;0.80;;;20.50;59.20;19.80;96430.00;;;;5054715;28;20198;-83
2023/08/09 01:28:40;;;;;;;1.20;0.80;;;20.50;59.20;19.80;96425.00;;;;5056683;28;20201;-82
2023/08/09 01:31:09;;;;;;;0.77;0.70;;;20.50;59.30;19.80;96424.00;;;;5056209;28;20863;-82
2023/08/09 01:33:36;;;;;;;0.90;0.90;;;20.50;59.30;19.80;96428.00;;;;5055775;28;20227;-82
2023/08/09 01:36:12;;;;;;;0.70;0.70;;;20.50;59.00;19.80;96422.00;;;;5056537;28;20193;-83
2023/08/09 01:38:48;;;;;;;1.30;0.90;;;20.50;59.00;19.80;96416.00;;;;5057312;28;20287;-82
2023/08/09 01:41:17;;;;;;;1.00;0.90;;;20.50;59.00;19.80;96410.00;;;;5056452;28;20253;-82
2023/08/09 01:43:48;;;;;;;1.47;0.70;;;20.50;59.20;19.80;96408.00;;;;5006533;28;20211;-82
2023/08/09 01:46:15;;;;;;;0.70;0.70;;;20.50;59.50;19.80;96415.00;;;;5055547;28;20197;-82
2023/08/09 01:48:43;;;;;;;0.70;0.70;;;20.50;59.70;19.80;96411.00;;;;5035926;28;20190;-82
2023/08/09 01:51:11;;;;;;;0.80;0.70;;;20.50;59.80;19.80;96406.00;;;;5044258;28;20245;-82
2023/08/09 01:53:41;;;;;;;0.60;0.60;;;20.50;59.80;19.80;96407.00;;;;5053507;28;20226;-82
2023/08/09 01:56:10;;;;;;;0.70;0.70;;;20.60;60.00;19.80;96407.00;;;;5051790;28;20267;-82
2023/08/09 01:58:38;;;;;;;0.80;0.80;;;20.50;59.90;19.80;96409.00;;;;5039751;28;20205;-82
2023/08/09 02:01:05;;;;;;;1.33;0.80;;;20.50;59.90;19.80;96410.00;;;;5045981;28;20236;-82
2023/08/09 02:03:32;;;;;;;0.80;0.80;;;20.50;60.10;19.80;96421.00;;;;5044664;28;20209;-82
2023/08/09 02:06:00;;;;;;;0.73;0.73;;;20.50;60.40;19.80;96421.00;;;;5045536;28;20203;-83
2023/08/09 02:08:27;;;;;;;0.90;0.90;;;20.50;60.90;19.80;96414.00;;;;5051709;28;20194;-83
2023/08/09 02:10:56;;;;;;;1.27;0.67;;;20.50;61.30;19.80;96408.00;;;;5038973;28;20760;-83
2023/08/09 02:13:23;;;;;;;0.90;0.90;;;20.50;62.20;19.80;96410.00;;;;5044225;28;20232;-83
2023/08/09 02:15:50;;;;;;;0.60;0.60;;;20.50;62.50;19.70;96413.00;;;;5034572;28;20870;-83
2023/08/09 02:18:18;;;;;;;1.07;0.90;;;20.50;63.10;19.70;96409.00;;;;5034872;28;20219;-83
2023/08/09 02:20:46;;;;;;;1.00;0.87;;;20.50;63.50;19.70;96409.00;;;;5038334;28;20206;-83
2023/08/09 02:23:13;;;;;;;0.73;0.70;;;20.40;63.80;19.60;96410.00;;;;5053882;28;20202;-83
2023/08/09 02:25:40;;;;;;;0.90;0.90;;;20.40;64.10;19.60;96400.00;;;;5036665;28;20220;-83
2023/08/09 02:28:09;;;;;;;0.77;0.77;;;20.30;64.30;19.50;96406.00;;;;5054291;28;20203;-83
2023/08/09 02:30:36;;;;;;;1.20;1.10;;;20.30;65.30;19.40;96400.00;;;;5028784;28;20192;-82
2023/08/09 02:33:04;;;;;;;1.10;0.70;;;20.20;64.60;19.40;96402.00;;;;5054011;28;20226;-82
2023/08/09 02:35:51;;;;;;;1.13;1.03;;;20.20;65.00;19.30;96404.00;;;;5054006;28;20720;-83
2023/08/09 02:38:19;;;;;;;1.20;1.10;;;20.20;65.40;19.30;96398.00;;;;5052919;28;20196;-83
2023/08/09 02:40:46;;;;;;;0.97;0.90;;;20.10;65.40;19.20;96396.00;;;;5054329;28;20197;-83
2023/08/09 02:43:15;;;;;;;1.13;0.93;;;20.00;66.50;19.20;96396.00;;;;5053686;28;20236;-82
2023/08/09 02:45:43;;;;;;;0.93;0.93;;;20.00;66.30;19.20;96391.00;;;;5036735;28;20311;-83
2023/08/09 02:48:10;;;;;;;1.10;0.80;;;19.90;66.20;19.10;96388.00;;;;5054221;28;20204;-82
2023/08/09 02:50:39;;;;;;;0.83;0.83;;;19.90;66.30;19.10;96394.00;;;;5052337;28;20193;-81
2023/08/09 02:53:08;;;;;;;0.97;0.80;;;19.90;66.50;19.10;96386.00;;;;5046968;28;20252;-83
2023/08/09 02:55:36;;;;;;;1.00;0.90;;;19.90;67.50;19.00;96390.00;;;;5026898;28;20217;-83
2023/08/09 02:58:05;;;;;;;1.10;0.90;;;19.80;67.00;19.00;96380.00;;;;5053334;28;20233;-83
2023/08/09 03:00:35;;;;;;;0.83;0.83;;;19.80;67.20;19.00;96379.00;;;;5035965;28;20208;-83
2023/08/09 03:03:04;;;;;;;0.90;0.70;;;19.80;67.50;18.90;96378.00;;;;5052705;28;20864;-83
2023/08/09 03:05:34;;;;;;;0.90;0.90;;;19.70;67.50;18.90;96375.00;;;;5051788;28;20674;-82
2023/08/09 03:08:01;;;;;;;1.00;0.80;;;19.70;67.80;18.90;96378.00;;;;5053828;28;20202;-82
2023/08/09 03:10:30;;;;;;;1.00;0.80;;;19.70;67.90;18.90;96378.00;;;;5051974;28;20590;-82
2023/08/09 03:12:57;;;;;;;0.70;0.70;;;19.70;67.90;18.90;96371.00;;;;5052131;28;20218;-82
2023/08/09 03:15:25;;;;;;;0.90;0.90;;;19.60;68.00;18.90;96376.00;;;;5052981;28;20219;-82
2023/08/09 03:17:54;;;;;;;1.63;1.10;;;19.60;68.10;18.80;96377.00;;;;5052769;28;20287;-82
2023/08/09 03:20:22;;;;;;;0.90;0.90;;;19.60;68.30;18.80;96381.00;;;;5051732;28;20212;-81
2023/08/09 03:22:50;;;;;;;1.40;1.30;;;19.60;68.30;18.80;96388.00;;;;5051884;28;20200;-83
2023/08/09 03:25:17;;;;;;;0.90;0.90;;;19.60;68.50;18.80;96387.00;;;;5035224;28;20224;-82
2023/08/09 03:27:44;;;;;;;0.90;0.90;;;19.60;68.70;18.80;96384.00;;;;5051761;28;20200;-82
2023/08/09 03:30:14;;;;;;;1.63;1.10;;;19.60;68.70;18.80;96382.00;;;;5045477;28;20625;-82
2023/08/09 03:32:41;;;;;;;1.33;1.03;;;19.60;68.70;18.80;96380.00;;;;5044842;28;20225;-82
2023/08/09 03:35:12;;;;;;;0.93;0.93;;;19.60;68.80;18.80;96387.00;;;;5053470;28;20320;-82
2023/08/09 03:37:39;;;;;;;1.07;1.00;;;19.60;69.20;18.80;96389.00;;;;5035300;28;20193;-81
2023/08/09 03:40:12;;;;;;;2.40;1.47;;;19.50;69.10;18.80;96392.00;;;;5051345;28;20215;-82
2023/08/09 03:42:40;;;;;;;1.10;1.00;;;19.50;69.20;18.80;96390.00;;;;5053308;28;20208;-82
2023/08/09 03:45:10;;;;;;;1.20;1.10;;;19.50;69.40;18.80;96403.00;;;;5053133;28;20217;-82
2023/08/09 03:47:38;;;;;;;1.00;1.00;;;19.60;69.80;18.80;96413.00;;;;5051881;28;20288;-82
2023/08/09 03:50:11;;;;;;;1.43;1.33;;;19.50;69.90;18.80;96411.00;;;;5053022;28;20215;-82
2023/08/09 03:52:38;;;;;;;0.70;0.70;;;19.50;70.10;18.80;96411.00;;;;5053293;28;20293;-82
2023/08/09 03:55:07;;;;;;;1.10;0.90;;;19.50;70.20;18.70;96412.00;;;;5051966;28;20306;-82
2023/08/09 03:57:36;;;;;;;0.90;0.90;;;19.50;70.50;18.70;96414.00;;;;5055864;28;20205;-82
2023/08/09 04:00:07;;;;;;;0.93;0.90;;;19.50;70.50;18.70;96419.00;;;;5056921;28;20243;-82
2023/08/09 04:02:35;;;;;;;0.70;0.70;;;19.50;70.70;18.70;96425.00;;;;5037729;28;20240;-82
2023/08/09 04:05:04;;;;;;;0.90;0.90;;;19.50;70.90;18.70;96422.00;;;;5033288;28;20229;-82
2023/08/09 04:07:33;;;;;;;1.10;1.00;;;19.50;71.00;18.70;96423.00;;;;5045330;28;20587;-82
2023/08/09 04:10:01;;;;;;;1.30;1.20;;;19.50;71.30;18.70;96430.00;;;;5056750;28;20200;-81
2023/08/09 04:12:29;;;;;;;1.10;0.97;;;19.50;71.30;18.70;96436.00;;;;5055477;28;20678;-81
2023/08/09 04:14:56;;;;;;;1.00;1.00;;;19.50;71.40;18.70;96440.00;;;;5056497;28;20212;-81
2023/08/09 04:17:24;;;;;;;1.10;1.10;;;19.40;71.40;18.70;96449.00;;;;5057274;28;20203;-82
2023/08/09 04:19:53;;;;;;;1.60;1.10;;;19.50;71.60;18.70;96457.00;;;;5056348;28;20193;-81
2023/08/09 04:22:20;;;;;;;1.10;0.90;;;19.50;71.70;18.60;96449.00;;;;5057566;28;20229;-82
2023/08/09 04:24:49;;;;;;;1.00;1.00;;;19.40;71.80;18.60;96448.00;;;;5056815;28;20216;-81
2023/08/09 04:27:16;;;;;;;2.43;1.00;;;19.40;72.00;18.60;96454.00;;;;5042819;28;20921;-81
2023/08/09 04:29:46;;;;;;;1.93;1.07;;;19.40;72.10;18.60;96442.00;;;;5049128;28;20620;-81
2023/08/09 04:32:14;;;;;;;1.00;0.90;;;19.40;72.20;18.60;96443.00;;;;5057091;28;20196;-81
2023/08/09 04:34:41;;;;;;;1.10;1.00;;;19.40;72.20;18.60;96443.00;;;;5050951;28;20228;-82
2023/08/09 04:37:08;;;;;;;1.30;1.20;;;19.40;72.40;18.60;96435.00;;;;5056049;28;20197;-82
2023/08/09 04:39:35;;;;;;;1.47;0.90;;;19.40;72.50;18.60;96437.00;;;;5058571;28;20728;-81
2023/08/09 04:42:04;;;;;;;0.93;0.93;;;19.40;72.60;18.60;96442.00;;;;5028963;28;20217;-80
2023/08/09 04:44:32;;;;;;;1.10;1.00;;;19.30;72.90;18.50;96440.00;;;;5044968;28;20266;-82
2023/08/09 04:46:59;;;;;;;1.60;1.17;;;19.40;72.90;18.50;96443.00;;;;5055708;28;20214;-82
2023/08/09 04:49:27;;;;;;;0.90;0.90;;;19.30;72.90;18.50;96446.00;;;;5055287;28;20284;-82
2023/08/09 04:51:55;;;;;;;1.70;1.37;;;19.30;73.00;18.50;96438.00;;;;5055635;28;20196;-81
2023/08/09 04:54:22;;;;;;;1.20;1.10;;;19.30;73.00;18.50;96436.00;;;;5055348;28;20255;-82
2023/08/09 04:56:49;;;;;;;1.67;0.90;;;19.30;73.10;18.50;96435.00;;;;5055674;28;20281;-81
2023/08/09 04:59:19;;;;;;;1.37;1.00;;;19.30;73.20;18.50;96444.00;;;;5045846;28;20197;-82
2023/08/09 05:01:46;;;;;;;0.93;0.93;;;19.30;73.40;18.50;96441.00;;;;5038541;28;20209;-81
2023/08/09 05:04:14;;;;;;;1.20;0.97;;;19.30;73.40;18.50;96434.00;;;;5054619;28;20258;-82
2023/08/09 05:06:41;;;;;;;1.10;1.00;;;19.30;73.50;18.50;96435.00;;;;5056181;28;20192;-82
2023/08/09 05:09:09;;;;;;;1.67;0.93;;;19.30;74.20;18.50;96433.00;;;;5047417;28;20662;-82
2023/08/09 05:11:36;;;;;;;0.90;0.90;;;19.30;73.60;18.50;96445.00;;;;5035370;28;20213;-82
2023/08/09 05:14:04;;;;;;;2.57;1.00;;;19.30;73.80;18.50;96442.00;;;;5041690;28;20220;-84
2023/08/09 05:16:34;;;;;;;0.93;0.93;;;19.30;74.00;18.50;96438.00;;;;5055537;28;20262;-86
2023/08/09 05:19:02;;;;;;;1.30;1.20;;;19.30;74.30;18.50;96440.00;;;;5048123;28;20209;-85
2023/08/09 05:21:29;;;;;;;1.27;1.17;;;19.30;74.40;18.50;96447.00;;;;5035561;28;20201;-85
2023/08/09 05:23:56;;;;;;;1.50;1.17;;;19.30;74.50;18.50;96443.00;;;;5036319;28;20710;-85
2023/08/09 05:26:23;;;;;;;1.00;0.97;;;19.30;74.50;18.50;96450.00;;;;5053954;28;20287;-85
2023/08/09 05:28:51;;;;;;;0.80;0.80;;;19.30;74.50;18.50;96449.00;;;;5056140;28;20631;-85
2023/08/09 05:31:18;;;;;;;0.80;0.80;;;19.30;74.60;18.50;96453.00;;;;5055943;28;20203;-85
2023/08/09 05:33:47;;;;;;;1.10;1.00;;;19.40;74.90;18.50;96446.00;;;;5056225;28;20220;-84
2023/08/09 05:36:15;;;;;;;1.03;1.00;;;19.40;75.00;18.50;96441.00;;;;5038392;28;20769;-85
2023/08/09 05:38:42;;;;;;;1.53;1.43;;;19.40;74.90;18.50;96444.00;;;;5045992;28;20702;-85
2023/08/09 05:41:09;;;;;;;1.77;1.07;;;19.40;75.00;18.50;96441.00;;;;5051957;28;20603;-87
2023/08/09 05:43:36;;;;;;;1.03;1.03;;;19.40;75.10;18.50;96442.00;;;;5053748;28;20207;-86
2023/08/09 05:46:03;;;;;;;1.83;0.87;;;19.40;75.20;18.50;96445.00;;;;5036584;28;20574;-86
2023/08/09 05:48:31;;;;;;;0.97;0.90;;;19.40;75.20;18.50;96437.00;;;;5036428;28;20197;-85
2023/08/09 05:51:00;;;;;;;1.20;1.10;;;19.40;75.10;18.50;96442.00;;;;5052597;28;20192;-85
2023/08/09 05:53:27;;;;;;;1.87;1.10;;;19.40;75.20;18.50;96449.00;;;;5051071;28;20216;-84
2023/08/09 05:55:54;;;;;;;1.10;1.00;;;19.40;75.30;18.50;96447.00;;;;5047014;28;20810;-85
2023/08/09 05:58:22;;;;;;;2.03;1.23;;;19.40;75.20;18.50;96447.00;;;;5052622;28;20200;-85
2023/08/09 06:00:49;;;;;;;1.60;0.97;;;19.40;75.30;18.50;96443.00;;;;5050131;28;20204;-88
2023/08/09 06:03:16;;;;;;;1.93;1.10;;;19.40;75.50;18.50;96440.00;;;;5048625;28;20201;-85
2023/08/09 06:05:44;;;;;;;1.07;0.97;;;19.40;75.50;18.50;96443.00;;;;5046580;28;20224;-84
2023/08/09 06:08:13;;;;;;;1.20;1.10;;;19.40;75.80;18.50;96439.00;;;;5057458;28;20189;-86
2023/08/09 06:10:40;;;;;;;1.07;0.97;;;19.40;76.00;18.60;96435.00;;;;5045495;28;20197;-85
2023/08/09 06:13:08;;;;;;;1.13;1.00;;;19.40;75.90;18.60;96436.00;;;;5053239;28;20196;-85
2023/08/09 06:15:35;;;;;;;1.20;1.10;;;19.40;75.90;18.60;96441.00;;;;5054268;28;20220;-84
2023/08/09 06:18:03;;;;;;;1.97;1.43;;;19.50;75.90;18.60;96445.00;;;;5056145;28;20215;-83
2023/08/09 06:20:31;;;;;;;1.43;1.00;;;19.50;75.80;18.60;96450.00;;;;5042939;28;20190;-86
2023/08/09 06:23:00;;;;;;;1.77;1.10;;;19.50;75.90;18.60;96451.00;;;;5039071;28;20193;-85
2023/08/09 06:25:29;;;;;;;1.20;1.10;;;19.50;75.80;18.70;96455.00;;;;5053229;28;20732;-85
2023/08/09 06:27:57;;;;;;;1.57;1.03;;;19.50;75.90;18.70;96457.00;;;;5020867;28;20581;-85
2023/08/09 06:30:25;;;;;;;1.20;1.10;;;19.50;75.80;18.70;96465.00;;;;5054888;28;20192;-85
2023/08/09 06:32:54;;;;;;;1.80;1.40;;;19.50;75.80;18.70;96459.00;;;;5055091;28;20229;-86
2023/08/09 06:35:22;;;;;;;1.40;1.20;;;19.50;75.80;18.70;96454.00;;;;5055705;28;20224;-85
2023/08/09 06:37:51;;;;;;;1.10;1.00;;;19.50;75.80;18.70;96453.00;;;;5056995;28;20197;-85
2023/08/09 06:40:20;;;;;;;0.97;0.97;;;19.60;76.10;18.70;96447.00;;;;5041802;28;20276;-84
2023/08/09 06:42:49;;;;;;;1.30;1.17;;;19.60;76.00;18.70;96448.00;;;;5022965;28;20188;-85
2023/08/09 06:45:17;;;;;;;1.40;1.30;;;19.60;76.00;18.70;96453.00;;;;5051172;28;20231;-85
2023/08/09 06:47:44;;;;;;;1.37;1.27;;;19.60;75.90;18.70;96452.00;;;;5033063;28;20755;-84
2023/08/09 06:50:11;;;;;;;1.30;1.20;;;19.60;76.00;18.70;96456.00;;;;5052153;28;20206;-84
2023/08/09 06:52:39;;;;;;;1.70;1.60;;;19.60;76.00;18.80;96467.00;;;;5047843;28;20200;-85
2023/08/09 06:55:08;;;;;;;1.43;1.33;;;19.60;76.30;18.80;96467.00;;;;5050678;28;20649;-85
2023/08/09 06:57:36;;;;;;;1.60;1.50;;;19.60;76.40;18.80;96472.00;;;;5058006;28;20285;-85
2023/08/09 07:00:15;;;;;;;1.50;1.40;;;19.60;76.30;18.80;96468.00;;;;5051278;28;20284;-84
2023/08/09 07:02:43;;;;;;;1.40;1.20;;;19.60;76.40;18.90;96455.00;;;;5060597;28;20245;-84
2023/08/09 07:05:15;;;;;;;1.20;1.10;;;19.60;75.90;18.90;96459.00;;;;5060768;28;20224;-84
2023/08/09 07:07:44;;;;;;;1.30;1.20;;;19.70;75.70;18.90;96459.00;;;;5064556;28;20193;-84
2023/08/09 07:10:11;;;;;;;1.27;1.10;;;19.70;75.60;18.90;96454.00;;;;5065742;28;20202;-84
2023/08/09 07:12:39;;;;;;;2.10;1.40;;;19.70;75.50;18.90;96458.00;;;;5066807;28;20291;-84
2023/08/09 07:15:10;;;;;;;2.17;1.10;;;19.70;75.60;18.90;96455.00;;;;5062766;28;20230;-83
2023/08/09 07:17:37;;;;;;;0.90;0.90;;;19.70;75.90;18.90;96458.00;;;;5067395;28;20192;-84
2023/08/09 07:20:07;;;;;;;1.33;1.23;;;19.70;75.80;18.90;96465.00;;;;5062758;28;20204;-83
2023/08/09 07:22:34;;;;;;;1.10;1.00;;;19.70;75.70;19.00;96461.00;;;;5061321;28;20264;-85
2023/08/09 07:25:02;;;;;;;1.27;1.17;;;19.70;75.50;18.90;96461.00;;;;5054020;28;20221;-85
2023/08/09 07:27:30;;;;;;;1.50;1.37;;;19.70;75.60;19.00;96464.00;;;;5053454;28;20196;-86
2023/08/09 07:29:57;;;;;;;1.33;1.23;;;19.70;76.10;19.00;96456.00;;;;5048248;28;20202;-86
2023/08/09 07:32:26;;;;;;;1.20;1.10;;;19.70;76.40;19.00;96458.00;;;;5059654;28;20205;-84
2023/08/09 07:34:53;;;;;;;1.00;0.90;;;19.70;76.60;19.00;96459.00;;;;5052378;28;20299;-83
2023/08/09 07:37:21;;;;;;;1.07;0.97;;;19.70;76.60;19.00;96462.00;;;;5063267;28;20291;-84
2023/08/09 07:39:48;;;;;;;1.10;1.10;;;19.70;76.70;19.00;96451.00;;;;5057980;28;20248;-83
2023/08/09 07:42:15;;;;;;;1.10;1.03;;;19.70;76.70;19.00;96454.00;;;;5053766;28;20256;-82
2023/08/09 07:44:43;;;;;;;1.33;1.23;;;19.70;76.80;19.00;96458.00;;;;5059591;28;20220;-83
2023/08/09 07:47:10;;;;;;;1.57;1.37;;;19.80;76.90;19.00;96445.00;;;;5037472;28;20280;-83
2023/08/09 07:49:39;;;;;;;1.40;1.30;;;19.80;76.90;19.00;96443.00;;;;5051836;28;20287;-83
2023/08/09 07:52:07;;;;;;;1.80;1.13;;;19.80;76.70;19.00;96445.00;;;;5058833;28;20279;-83
2023/08/09 07:54:38;;;;;;;1.67;1.30;;;19.80;76.80;19.10;96454.00;;;;5056923;28;20713;-86
2023/08/09 07:57:06;;;;;;;1.40;1.30;;;19.80;77.00;19.10;96460.00;;;;5054836;28;20228;-85
2023/08/09 07:59:33;;;;;;;1.27;1.17;;;19.80;77.30;19.10;96455.00;;;;5062314;28;20222;-85
2023/08/09 08:02:00;;;;;;;1.43;1.20;;;19.80;77.40;19.10;96456.00;;;;5062140;28;20272;-85
2023/08/09 08:04:28;;;;;;;1.07;0.97;;;19.90;77.50;19.20;96453.00;;;;5062723;28;20281;-85
2023/08/09 08:06:56;;;;;;;1.27;1.03;;;19.90;77.50;19.20;96456.00;;;;5065032;28;20276;-84
2023/08/09 08:09:24;;;;;;;3.30;1.43;;;19.90;77.70;19.20;96455.00;;;;5061355;28;20207;-84
2023/08/09 08:11:52;;;;;;;1.63;1.30;;;19.90;77.70;19.30;96451.00;;;;5066913;28;20581;-83
2023/08/09 08:14:19;;;;;;;1.83;1.10;;;20.00;77.50;19.30;96450.00;;;;5065406;28;20235;-83
2023/08/09 08:16:48;;;;;;;1.93;1.07;;;20.00;77.40;19.30;96455.00;;;;5063325;28;20295;-84
2023/08/09 08:19:16;;;;;;;2.67;1.27;;;20.00;77.50;19.30;96466.00;;;;5069715;28;20208;-82
2023/08/09 08:21:43;;;;;;;1.63;1.53;;;20.10;77.50;19.40;96465.00;;;;5059172;28;20228;-82
2023/08/09 08:24:12;;;;;;;1.97;1.10;;;20.10;77.50;19.40;96474.00;;;;5058307;28;20596;-83
2023/08/09 08:26:39;;;;;;;1.43;1.13;;;20.10;77.50;19.40;96469.00;;;;5062836;28;20212;-83
2023/08/09 08:29:07;;;;;;;1.27;1.17;;;20.10;77.60;19.50;96465.00;;;;5053310;28;20192;-82
2023/08/09 08:31:35;;;;;;;1.27;1.17;;;20.10;77.60;19.50;96469.00;;;;5064009;28;20208;-84
2023/08/09 08:34:02;;;;;;;1.27;1.10;;;20.20;77.50;19.50;96469.00;;;;5064411;28;20228;-82
2023/08/09 08:36:29;;;;;;;1.40;1.03;;;20.20;77.50;19.60;96466.00;;;;5065889;28;20197;-84
2023/08/09 08:38:57;;;;;;;1.17;1.00;;;20.20;77.50;19.60;96459.00;;;;5064658;28;20200;-82
2023/08/09 08:41:26;;;;;;;1.50;1.00;;;20.20;77.10;19.60;96462.00;;;;5057005;28;20239;-82
2023/08/09 08:43:54;;;;;;;1.63;1.17;;;20.30;76.90;19.60;96457.00;;;;5056965;28;20224;-84
2023/08/09 08:46:25;;;;;;;1.20;1.10;;;20.30;76.90;19.70;96459.00;;;;5054129;28;20199;-82
2023/08/09 08:48:55;;;;;;;1.17;1.07;;;20.30;76.80;19.70;96460.00;;;;5059073;28;20264;-83
2023/08/09 08:51:29;;;;;;;1.23;1.17;;;20.30;76.90;19.70;96461.00;;;;5057875;28;20717;-83
2023/08/09 08:53:59;;;;;;;1.10;1.00;;;20.30;77.20;19.70;96471.00;;;;5057968;28;20702;-83
2023/08/09 08:56:28;;;;;;;1.30;1.20;;;20.40;77.00;19.70;96465.00;;;;5041091;28;20199;-83
2023/08/09 08:58:56;;;;;;;2.07;1.40;;;20.40;77.00;19.80;96472.00;;;;5052868;28;20222;-81
2023/08/09 09:01:24;;;;;;;1.17;0.97;;;20.40;76.80;19.80;96475.00;;;;5055801;28;20284;-82
2023/08/09 09:03:51;;;;;;;1.10;1.00;;;20.40;76.50;19.80;96472.00;;;;5058458;28;20220;-82
2023/08/09 09:06:19;;;;;;;1.53;1.43;;;20.40;76.70;19.80;96473.00;;;;5040614;28;20550;-83
2023/08/09 09:08:46;;;;;;;1.20;1.10;;;20.40;76.70;19.80;96475.00;;;;5059206;28;20204;-82
2023/08/09 09:11:18;;;;;;;1.50;1.20;;;20.50;76.90;19.80;96476.00;;;;5058913;28;20226;-88
2023/08/09 09:13:48;;;;;;;1.73;1.10;;;20.50;77.20;19.90;96477.00;;;;5059454;28;20211;-83
2023/08/09 09:16:18;;;;;;;0.83;0.83;;;20.50;77.20;19.90;96472.00;;;;5026828;28;20205;-84
2023/08/09 09:18:48;;;;;;;0.90;0.90;;;20.50;77.00;20.00;96474.00;;;;5061625;28;20221;-84
2023/08/09 09:21:17;;;;;;;1.10;1.10;;;20.60;77.10;20.00;96476.00;;;;5049129;28;20292;-82
2023/08/09 09:23:46;;;;;;;0.83;0.83;;;20.60;76.40;20.00;96476.00;;;;5054889;28;20544;-83
2023/08/09 09:26:15;;;;;;;1.30;0.90;;;20.60;75.90;20.10;96483.00;;;;5035949;28;20203;-83
2023/08/09 09:28:47;;;;;;;1.67;1.07;;;20.70;76.00;20.10;96474.00;;;;5055057;28;20193;-83
2023/08/09 09:31:17;;;;;;;1.03;0.93;;;20.70;76.20;20.10;96479.00;;;;5055601;28;20208;-82
2023/08/09 09:33:48;;;;;;;0.90;0.90;;;20.70;76.40;20.10;96488.00;;;;5056090;28;20189;-82
2023/08/09 09:36:17;;;;;;;1.13;1.03;;;20.70;76.30;20.20;96504.00;;;;5048516;28;20225;-83
2023/08/09 09:38:47;;;;;;;1.53;1.13;;;20.80;75.90;20.20;96513.00;;;;5051324;28;20263;-83
2023/08/09 09:41:16;;;;;;;1.20;1.10;;;20.80;75.80;20.20;96518.00;;;;5062112;28;20215;-83
2023/08/09 09:43:50;;;;;;;1.30;1.20;;;20.80;75.40;20.20;96524.00;;;;5060451;28;20207;-82
2023/08/09 09:46:29;;;;;;;1.73;0.97;;;20.80;75.30;20.20;96520.00;;;;5054890;28;20251;-84
2023/08/09 09:49:02;;;;;;;1.10;0.80;;;20.80;75.20;20.20;96530.00;;;;5054863;28;20227;-83
2023/08/09 09:51:30;;;;;;;0.93;0.90;;;20.80;75.00;20.20;96523.00;;;;5056716;28;20189;-82
2023/08/09 09:53:57;;;;;;;0.90;0.90;;;20.80;75.10;20.10;96528.00;;;;5054460;28;20304;-83
2023/08/09 09:56:26;;;;;;;1.13;1.00;;;20.80;75.20;20.10;96539.00;;;;5055630;28;20215;-82
2023/08/09 09:58:54;;;;;;;1.00;0.87;;;20.80;75.40;20.10;96530.00;;;;5055804;28;20661;-83
2023/08/09 10:01:25;;;;;;;1.77;1.10;;;20.80;75.50;20.10;96539.00;;;;5056305;28;20203;-84
2023/08/09 10:04:06;;;;;;;1.67;1.10;;;20.70;75.30;20.00;96541.00;;;;5055477;28;20240;-83
2023/08/09 10:06:39;;;;;;;1.33;1.17;;;20.70;75.20;20.00;96540.00;;;;5055675;28;20268;-84
2023/08/09 10:09:10;;;;;;;2.00;1.30;;;20.70;75.20;20.00;96540.00;;;;5050086;28;20386;-84
2023/08/09 10:11:39;;;;;;;1.20;1.10;;;20.70;75.50;20.00;96540.00;;;;5055781;28;20204;-85
2023/08/09 10:14:11;;;;;;;0.87;0.87;;;20.70;75.50;19.90;96538.00;;;;5058328;28;20219;-85
2023/08/09 10:16:39;;;;;;;1.40;1.20;;;20.60;75.30;19.90;96546.00;;;;5054009;28;20216;-85
2023/08/09 10:19:12;;;;;;;1.67;1.00;;;20.60;75.20;19.90;96542.00;;;;5054442;28;20200;-85
2023/08/09 10:21:41;;;;;;;1.30;1.10;;;20.60;75.50;19.90;96535.00;;;;5043546;28;20697;-84
2023/08/09 10:24:12;;;;;;;1.37;1.20;;;20.60;75.50;19.90;96534.00;;;;5053802;28;20227;-85
2023/08/09 10:26:46;;;;;;;1.07;0.97;;;20.60;75.30;19.90;96533.00;;;;5037957;28;20655;-85
2023/08/09 10:29:20;;;;;;;1.70;0.90;;;20.60;75.70;19.90;96532.00;;;;5044108;28;20197;-84
2023/08/09 10:31:53;;;;;;;1.63;1.00;;;20.60;75.90;19.90;96534.00;;;;5047449;28;20210;-84
2023/08/09 10:34:23;;;;;;;1.43;1.00;;;20.60;76.00;19.90;96529.00;;;;5053198;28;20248;-85
2023/08/09 10:36:54;;;;;;;0.97;0.93;;;20.60;76.10;19.90;96526.00;;;;5049184;28;20207;-83
2023/08/09 10:39:24;;;;;;;1.00;0.93;;;20.50;76.10;20.00;96527.00;;;;5052824;28;20199;-83
2023/08/09 10:42:00;;;;;;;1.33;1.00;;;20.60;76.40;20.00;96520.00;;;;5052095;28;20197;-80
2023/08/09 10:44:39;;;;;;;0.93;0.93;;;20.60;77.00;20.10;96529.00;;;;5041955;28;20225;-84
2023/08/09 10:47:10;;;;;;;1.07;1.07;;;20.70;77.90;20.30;96526.00;;;;5047936;28;20253;-83
2023/08/09 10:50:00;;;;;;;1.30;1.00;;;20.80;78.40;20.40;96521.00;;;;5055489;28;20219;-84
2023/08/09 10:52:36;;;;;;;1.00;1.00;;;20.90;79.60;20.60;96519.00;;;;5052107;28;20246;-84
2023/08/09 10:55:29;;;;;;;1.63;1.23;;;21.00;78.70;20.70;96525.00;;;;5051925;28;20255;-83
2023/08/09 10:58:00;;;;;;;1.10;1.00;;;21.10;77.80;20.80;96523.00;;;;5052647;28;20203;-83
2023/08/09 11:00:38;;;;;;;1.00;0.90;;;21.30;77.50;20.90;96520.00;;;;5052226;28;20184;-83
2023/08/09 11:03:07;;;;;;;1.17;1.07;;;21.40;77.30;21.00;96522.00;;;;5052895;28;20591;-82